createdAt,value
2023-02-21T00:01:59.688Z,84.86
2023-02-21T00:04:45.410Z,85.24
2023-02-21T00:07:30.456Z,84.92
2023-02-21T00:10:15.843Z,85.11
2023-02-21T00:13:01.450Z,84.85
2023-02-21T00:15:46.736Z,84.65
2023-02-21T00:18:32.388Z,84.96
2023-02-21T00:21:17.762Z,84.77
2023-02-21T00:24:03.375Z,84.81
2023-02-21T00:26:48.895Z,84.99
2023-02-21T00:29:34.277Z,85.01
2023-02-21T00:32:19.638Z,85.01
2023-02-21T00:35:05.047Z,85.39
2023-02-21T00:37:50.449Z,85.39
2023-02-21T00:40:36.003Z,85.08
2023-02-21T00:43:21.726Z,84.66
2023-02-21T00:46:07.222Z,84.58
2023-02-21T00:48:52.594Z,84.40
2023-02-21T00:51:38.023Z,84.26
2023-02-21T00:54:23.341Z,84.12
2023-02-21T00:57:08.837Z,84.01
2023-02-21T00:59:54.391Z,83.57
2023-02-21T01:02:39.542Z,83.82
2023-02-21T01:05:25.458Z,83.35
2023-02-21T01:08:10.614Z,83.14
2023-02-21T01:10:59.365Z,83.82
2023-02-21T01:13:44.731Z,83.73
2023-02-21T01:16:29.952Z,83.91
2023-02-21T01:19:17.171Z,83.25
2023-02-21T01:22:02.877Z,83.31
2023-02-21T01:24:48.518Z,83.18
2023-02-21T01:27:33.773Z,83.05
2023-02-21T01:30:19.385Z,83.61
2023-02-21T01:33:04.857Z,84.06
2023-02-21T01:35:50.259Z,83.54
2023-02-21T01:38:35.484Z,83.04
2023-02-21T01:41:21.013Z,83.58
2023-02-21T01:44:25.071Z,83.41
2023-02-21T01:47:12.267Z,84.05
2023-02-21T01:49:59.725Z,84.21
2023-02-21T01:52:45.723Z,84.11
2023-02-21T01:55:31.094Z,84.09
2023-02-21T01:58:16.505Z,83.57
2023-02-21T02:01:03.403Z,84.15
2023-02-21T02:03:50.090Z,84.67
2023-02-21T02:06:36.484Z,84.43
2023-02-21T02:09:36.338Z,83.66
2023-02-21T02:12:25.607Z,83.57
2023-02-21T02:15:10.941Z,84.16
2023-02-21T02:18:07.188Z,84.44
2023-02-21T02:21:02.623Z,84.12
2023-02-21T02:24:00.402Z,84.53
2023-02-21T02:26:29.948Z,84.45
2023-02-21T02:29:26.082Z,84.45
2023-02-21T02:32:32.119Z,84.44
2023-02-21T02:35:09.894Z,84.16
2023-02-21T02:38:03.558Z,84.52
2023-02-21T02:40:39.836Z,84.58
2023-02-21T02:43:13.081Z,84.42
2023-02-21T02:45:49.015Z,84.47
2023-02-21T02:48:22.284Z,84.78
2023-02-21T02:50:51.197Z,84.67
2023-02-21T02:53:23.028Z,84.63
2023-02-21T02:55:58.141Z,84.64
2023-02-21T02:58:30.379Z,84.79
2023-02-21T03:01:07.465Z,84.97
2023-02-21T03:03:52.658Z,84.95
2023-02-21T03:07:03.082Z,84.85
2023-02-21T03:09:48.764Z,84.69
2023-02-21T03:12:28.884Z,84.79
2023-02-21T03:15:05.403Z,84.99
2023-02-21T03:17:37.039Z,84.85
2023-02-21T03:20:06.825Z,85.10
2023-02-21T03:22:34.826Z,85.71
2023-02-21T03:25:03.819Z,85.46
2023-02-21T03:27:32.934Z,85.63
2023-02-21T03:30:09.365Z,85.79
2023-02-21T03:32:40.135Z,85.44
2023-02-21T03:35:08.003Z,85.46
2023-02-21T03:37:55.050Z,86.00
2023-02-21T03:40:32.614Z,86.43
2023-02-21T03:43:03.753Z,86.58
2023-02-21T03:45:35.265Z,85.90
2023-02-21T03:48:06.952Z,85.31
2023-02-21T03:50:35.693Z,85.66
2023-02-21T03:53:02.636Z,85.27
2023-02-21T03:55:31.364Z,85.40
2023-02-21T03:58:00.750Z,85.50
2023-02-21T04:00:28.677Z,85.59
2023-02-21T04:02:56.576Z,85.39
2023-02-21T04:05:46.028Z,85.16
2023-02-21T04:08:12.948Z,84.93
2023-02-21T04:10:51.280Z,84.43
2023-02-21T04:13:21.038Z,84.73
2023-02-21T04:15:49.679Z,84.17
2023-02-21T04:18:17.079Z,84.89
2023-02-21T04:20:46.423Z,83.95
2023-02-21T04:23:19.022Z,83.63
2023-02-21T04:25:46.268Z,83.66
2023-02-21T04:28:17.048Z,83.67
2023-02-21T04:30:44.229Z,83.74
2023-02-21T04:33:11.352Z,83.41
2023-02-21T04:35:38.220Z,83.56
2023-02-21T04:38:12.990Z,83.35
2023-02-21T04:40:40.138Z,83.48
2023-02-21T04:43:07.115Z,83.40
2023-02-21T04:45:33.961Z,82.98
2023-02-21T04:48:00.704Z,82.75
2023-02-21T04:50:28.829Z,82.22
2023-02-21T04:52:55.527Z,82.51
2023-02-21T04:55:22.325Z,82.44
2023-02-21T04:57:49.656Z,82.20
2023-02-21T05:00:16.868Z,82.57
2023-02-21T05:02:44.510Z,82.53
2023-02-21T05:05:12.176Z,83.18
2023-02-21T05:07:41.095Z,82.45
2023-02-21T05:10:09.764Z,82.36
2023-02-21T05:12:40.114Z,82.23
2023-02-21T05:15:08.557Z,82.50
2023-02-21T05:17:35.419Z,82.32
2023-02-21T05:20:02.646Z,82.53
2023-02-21T05:22:29.496Z,82.97
2023-02-21T05:24:56.357Z,83.15
2023-02-21T05:27:24.942Z,82.67
2023-02-21T05:29:53.602Z,83.23
2023-02-21T05:32:21.950Z,83.10
2023-02-21T05:34:48.776Z,83.64
2023-02-21T05:37:17.561Z,83.53
2023-02-21T05:39:44.564Z,83.45
2023-02-21T05:42:11.328Z,83.83
2023-02-21T05:44:38.063Z,83.59
2023-02-21T05:47:07.216Z,83.45
2023-02-21T05:49:34.410Z,83.52
2023-02-21T05:52:01.117Z,83.59
2023-02-21T05:54:27.946Z,83.74
2023-02-21T05:56:54.714Z,84.06
2023-02-21T05:59:21.591Z,84.36
2023-02-21T06:01:49.356Z,84.24
2023-02-21T06:04:17.281Z,84.09
2023-02-21T06:06:44.911Z,84.17
2023-02-21T06:09:11.824Z,84.10
2023-02-21T06:11:40.481Z,84.07
2023-02-21T06:14:14.172Z,83.93
2023-02-21T06:16:41.003Z,83.71
2023-02-21T06:19:09.188Z,83.98
2023-02-21T06:21:36.342Z,83.77
2023-02-21T06:24:04.416Z,84.05
2023-02-21T06:26:31.216Z,84.46
2023-02-21T06:28:58.095Z,84.28
2023-02-21T06:31:25.437Z,84.04
2023-02-21T06:33:53.699Z,84.30
2023-02-21T06:36:24.340Z,84.34
2023-02-21T06:38:53.518Z,84.32
2023-02-21T06:41:28.824Z,84.26
2023-02-21T06:43:57.490Z,84.12
2023-02-21T06:46:27.119Z,84.27
2023-02-21T06:48:54.029Z,84.41
2023-02-21T06:51:20.935Z,84.41
2023-02-21T06:53:50.275Z,84.19
2023-02-21T06:56:17.060Z,83.61
2023-02-21T06:58:43.876Z,83.48
2023-02-21T07:01:10.650Z,83.88
2023-02-21T07:03:43.372Z,83.64
2023-02-21T07:06:11.149Z,83.53
2023-02-21T07:08:37.954Z,83.45
2023-02-21T07:11:05.905Z,83.74
2023-02-21T07:13:33.537Z,84.25
2023-02-21T07:16:02.254Z,84.56
2023-02-21T07:18:29.185Z,84.39
2023-02-21T07:20:55.934Z,84.41
2023-02-21T07:23:22.682Z,84.44
2023-02-21T07:25:49.657Z,84.24
2023-02-21T07:28:17.641Z,84.54
2023-02-21T07:30:44.458Z,84.69
2023-02-21T07:33:11.240Z,84.75
2023-02-21T07:35:38.063Z,84.44
2023-02-21T07:38:04.825Z,84.37
2023-02-21T07:40:31.840Z,84.35
2023-02-21T07:42:58.509Z,84.41
2023-02-21T07:45:25.361Z,84.33
2023-02-21T07:47:53.466Z,84.33
2023-02-21T07:50:20.585Z,84.35
2023-02-21T07:52:47.390Z,84.34
2023-02-21T07:55:14.667Z,84.36
2023-02-21T07:57:41.374Z,84.16
2023-02-21T08:00:10.008Z,84.17
2023-02-21T08:02:48.859Z,84.00
2023-02-21T08:05:16.996Z,83.81
2023-02-21T08:07:44.128Z,83.14
2023-02-21T08:10:12.015Z,82.88
2023-02-21T08:12:38.837Z,82.82
2023-02-21T08:15:06.672Z,82.93
2023-02-21T08:17:33.492Z,82.93
2023-02-21T08:20:00.403Z,82.84
2023-02-21T08:22:27.235Z,82.66
2023-02-21T08:24:54.025Z,82.19
2023-02-21T08:27:20.766Z,82.36
2023-02-21T08:29:50.609Z,82.25
2023-02-21T08:32:19.005Z,82.12
2023-02-21T08:34:49.609Z,82.24
2023-02-21T08:37:20.353Z,82.57
2023-02-21T08:39:52.226Z,82.19
2023-02-21T08:42:20.540Z,81.90
2023-02-21T08:44:47.511Z,81.74
2023-02-21T08:47:15.831Z,81.40
2023-02-21T08:49:47.666Z,80.96
2023-02-21T08:52:19.487Z,80.11
2023-02-21T08:54:47.875Z,79.91
2023-02-21T08:57:14.695Z,79.60
2023-02-21T08:59:42.892Z,80.20
2023-02-21T09:02:25.650Z,79.13
2023-02-21T09:04:53.053Z,79.67
2023-02-21T09:07:21.921Z,80.29
2023-02-21T09:09:49.187Z,80.89
2023-02-21T09:12:17.142Z,81.34
2023-02-21T09:14:44.733Z,80.91
2023-02-21T09:17:13.771Z,81.01
2023-02-21T09:19:40.944Z,80.55
2023-02-21T09:22:11.174Z,80.17
2023-02-21T09:24:38.928Z,79.85
2023-02-21T09:27:06.850Z,79.30
2023-02-21T09:29:45.436Z,78.05
2023-02-21T09:32:14.289Z,78.08
2023-02-21T09:34:41.547Z,78.91
2023-02-21T09:37:08.978Z,78.42
2023-02-21T09:39:39.288Z,78.34
2023-02-21T09:42:06.519Z,78.58
2023-02-21T09:44:33.360Z,78.63
2023-02-21T09:47:06.242Z,78.67
2023-02-21T09:49:40.913Z,78.93
2023-02-21T09:52:22.579Z,78.78
2023-02-21T09:54:57.604Z,78.50
2023-02-21T09:57:24.990Z,78.62
2023-02-21T09:59:51.887Z,78.75
2023-02-21T10:02:54.506Z,79.54
2023-02-21T10:05:42.114Z,79.40
2023-02-21T10:08:38.565Z,79.71
2023-02-21T10:11:31.385Z,79.41
2023-02-21T10:14:03.995Z,79.12
2023-02-21T10:16:35.082Z,79.20
2023-02-21T10:19:26.211Z,78.24
2023-02-21T10:21:58.710Z,77.93
2023-02-21T10:24:27.294Z,78.20
2023-02-21T10:27:04.822Z,77.38
2023-02-21T10:29:52.716Z,77.30
2023-02-21T10:32:19.789Z,77.95
2023-02-21T10:34:48.257Z,78.68
2023-02-21T10:37:40.758Z,79.32
2023-02-21T10:40:27.374Z,79.44
2023-02-21T10:43:19.284Z,79.77
2023-02-21T10:45:54.459Z,79.69
2023-02-21T10:48:25.743Z,79.33
2023-02-21T10:51:15.039Z,78.80
2023-02-21T10:53:45.482Z,77.49
2023-02-21T10:56:15.365Z,76.68
2023-02-21T10:59:05.517Z,75.90
2023-02-21T11:01:32.364Z,75.26
2023-02-21T11:04:23.243Z,75.09
2023-02-21T11:06:54.686Z,74.19
2023-02-21T11:09:30.788Z,73.89
2023-02-21T11:12:15.831Z,72.98
2023-02-21T11:14:45.056Z,73.32
2023-02-21T11:17:23.796Z,73.63
2023-02-21T11:19:50.563Z,73.78
2023-02-21T11:22:39.368Z,73.81
2023-02-21T11:25:12.621Z,73.37
2023-02-21T11:27:39.818Z,72.75
2023-02-21T11:30:22.734Z,73.13
2023-02-21T11:32:54.160Z,73.18
2023-02-21T11:35:22.176Z,72.53
2023-02-21T11:37:56.317Z,71.78
2023-02-21T11:40:25.920Z,72.04
2023-02-21T11:43:39.229Z,72.53
2023-02-21T11:46:33.871Z,72.45
2023-02-21T11:49:12.782Z,72.98
2023-02-21T11:51:46.379Z,73.73
2023-02-21T11:54:13.393Z,74.83
2023-02-21T11:56:58.824Z,75.35
2023-02-21T12:00:08.594Z,75.69
2023-02-21T12:02:53.305Z,76.05
2023-02-21T12:05:47.919Z,76.01
2023-02-21T12:08:35.149Z,76.21
2023-02-21T12:11:10.742Z,74.95
2023-02-21T12:13:58.663Z,74.81
2023-02-21T12:17:07.203Z,74.83
2023-02-21T12:19:48.795Z,75.11
2023-02-21T12:22:33.512Z,75.47
2023-02-21T12:25:09.412Z,74.53
2023-02-21T12:27:45.436Z,74.38
2023-02-21T12:30:27.342Z,73.77
2023-02-21T12:33:18.748Z,73.10
2023-02-21T12:36:17.387Z,73.65
2023-02-21T12:39:02.805Z,73.78
2023-02-21T12:41:32.293Z,73.79
2023-02-21T12:44:17.570Z,74.13
2023-02-21T12:46:44.377Z,73.18
2023-02-21T12:49:27.031Z,73.69
2023-02-21T12:52:06.976Z,73.60
2023-02-21T12:54:44.877Z,73.29
2023-02-21T12:57:16.256Z,73.41
2023-02-21T12:59:43.039Z,73.04
2023-02-21T13:02:22.712Z,72.46
2023-02-21T13:05:05.387Z,72.66
2023-02-21T13:07:51.928Z,71.98
2023-02-21T13:10:24.747Z,72.82
2023-02-21T13:12:59.880Z,72.82
2023-02-21T13:15:29.912Z,72.49
2023-02-21T13:17:56.690Z,72.59
2023-02-21T13:20:26.046Z,73.09
2023-02-21T13:23:30.323Z,72.71
2023-02-21T13:26:31.183Z,73.07
2023-02-21T13:28:59.297Z,72.93
2023-02-21T13:31:29.066Z,72.48
2023-02-21T13:33:59.820Z,72.19
2023-02-21T13:36:31.168Z,72.51
2023-02-21T13:39:05.939Z,72.79
2023-02-21T13:41:42.529Z,73.23
2023-02-21T13:44:32.765Z,73.79
2023-02-21T13:47:02.884Z,73.32
2023-02-21T13:49:54.166Z,73.22
2023-02-21T13:52:23.803Z,73.52
2023-02-21T13:55:15.996Z,73.78
2023-02-21T13:58:00.519Z,73.29
2023-02-21T14:00:27.736Z,73.42
2023-02-21T14:03:05.604Z,74.07
2023-02-21T14:05:44.520Z,74.05
2023-02-21T14:08:24.849Z,73.92
2023-02-21T14:10:55.192Z,74.26
2023-02-21T14:13:38.188Z,73.77
2023-02-21T14:16:08.251Z,73.49
2023-02-21T14:18:39.748Z,73.29
2023-02-21T14:21:15.949Z,73.30
2023-02-21T14:23:50.244Z,73.40
2023-02-21T14:26:53.945Z,73.38
2023-02-21T14:29:41.873Z,73.59
2023-02-21T14:32:08.788Z,73.87
2023-02-21T14:34:47.262Z,73.82
2023-02-21T14:37:26.007Z,73.86
2023-02-21T14:40:14.745Z,74.18
2023-02-21T14:43:02.654Z,74.50
2023-02-21T14:46:08.451Z,74.51
2023-02-21T14:49:12.736Z,74.00
2023-02-21T14:52:22.987Z,74.29
2023-02-21T14:55:02.380Z,74.42
2023-02-21T14:57:50.822Z,74.83
2023-02-21T15:00:21.160Z,74.53
2023-02-21T15:03:25.446Z,74.84
2023-02-21T15:06:12.856Z,75.05
2023-02-21T15:08:43.066Z,75.52
2023-02-21T15:11:19.959Z,75.69
2023-02-21T15:13:46.948Z,75.66
2023-02-21T15:16:16.804Z,75.88
2023-02-21T15:19:01.515Z,76.11
2023-02-21T15:21:28.438Z,76.44
2023-02-21T15:24:13.057Z,76.95
2023-02-21T15:26:40.356Z,77.12
2023-02-21T15:29:09.077Z,77.42
2023-02-21T15:31:41.480Z,77.81
2023-02-21T15:34:20.701Z,78.12
2023-02-21T15:36:55.363Z,78.38
2023-02-21T15:39:29.351Z,78.60
2023-02-21T15:41:59.926Z,78.76
2023-02-21T15:44:32.699Z,78.75
2023-02-21T15:47:14.128Z,79.02
2023-02-21T15:49:52.856Z,79.25
2023-02-21T15:52:48.886Z,79.57
2023-02-21T15:55:26.950Z,79.33
2023-02-21T15:58:03.580Z,79.27
2023-02-21T16:00:41.460Z,79.40
2023-02-21T16:03:31.976Z,79.44
2023-02-21T16:06:23.646Z,79.24
2023-02-21T16:09:04.573Z,79.11
2023-02-21T16:11:42.820Z,79.29
2023-02-21T16:14:40.329Z,79.15
2023-02-21T16:17:13.105Z,79.08
2023-02-21T16:19:48.138Z,79.11
2023-02-21T16:22:53.755Z,79.30
2023-02-21T16:25:25.322Z,79.46
2023-02-21T16:28:02.116Z,79.58
2023-02-21T16:30:31.598Z,79.57
2023-02-21T16:33:04.102Z,79.53
2023-02-21T16:35:32.220Z,79.61
2023-02-21T16:38:00.487Z,79.62
2023-02-21T16:40:34.186Z,79.53
2023-02-21T16:43:02.276Z,79.91
2023-02-21T16:45:30.545Z,79.50
2023-02-21T16:48:02.720Z,79.44
2023-02-21T16:50:33.464Z,79.31
2023-02-21T16:53:01.177Z,79.29
2023-02-21T16:55:29.082Z,79.40
2023-02-21T16:57:59.457Z,79.49
2023-02-21T17:00:26.457Z,79.11
2023-02-21T17:02:53.741Z,79.35
2023-02-21T17:05:21.950Z,79.08
2023-02-21T17:07:53.595Z,79.17
2023-02-21T17:10:21.713Z,79.25
2023-02-21T17:12:48.657Z,79.25
2023-02-21T17:15:15.729Z,79.38
2023-02-21T17:17:44.462Z,79.44
2023-02-21T17:20:18.644Z,79.58
2023-02-21T17:22:45.743Z,79.69
2023-02-21T17:25:12.567Z,79.76
2023-02-21T17:27:39.920Z,79.80
2023-02-21T17:30:07.789Z,79.72
2023-02-21T17:32:34.658Z,79.56
2023-02-21T17:35:01.524Z,79.77
2023-02-21T17:37:28.511Z,79.77
2023-02-21T17:39:56.643Z,79.84
2023-02-21T17:42:24.993Z,79.96
2023-02-21T17:44:53.155Z,79.68
2023-02-21T17:47:21.969Z,80.08
2023-02-21T17:49:49.871Z,80.23
2023-02-21T17:52:17.961Z,80.01
2023-02-21T17:54:44.816Z,80.03
2023-02-21T17:57:12.227Z,79.56
2023-02-21T17:59:40.010Z,79.37
2023-02-21T18:02:08.240Z,79.82
2023-02-21T18:04:35.162Z,80.08
2023-02-21T18:07:02.135Z,79.79
2023-02-21T18:09:29.100Z,79.68
2023-02-21T18:11:59.268Z,79.84
2023-02-21T18:14:30.319Z,79.73
2023-02-21T18:16:58.336Z,79.71
2023-02-21T18:19:25.763Z,79.80
2023-02-21T18:21:53.904Z,79.56
2023-02-21T18:24:23.061Z,79.77
2023-02-21T18:26:50.087Z,79.80
2023-02-21T18:29:16.977Z,80.00
2023-02-21T18:31:43.877Z,80.21
2023-02-21T18:34:10.777Z,80.39
2023-02-21T18:36:41.050Z,80.51
2023-02-21T18:39:08.026Z,80.39
2023-02-21T18:41:35.324Z,80.14
2023-02-21T18:44:02.163Z,79.92
2023-02-21T18:46:31.389Z,79.92
2023-02-21T18:48:58.231Z,79.92
2023-02-21T18:51:25.063Z,79.96
2023-02-21T18:53:51.965Z,80.14
2023-02-21T18:56:20.615Z,80.17
2023-02-21T18:58:49.612Z,80.34
2023-02-21T19:01:19.384Z,80.37
2023-02-21T19:03:46.699Z,80.45
2023-02-21T19:06:16.374Z,80.59
2023-02-21T19:08:45.835Z,80.78
2023-02-21T19:11:15.841Z,80.66
2023-02-21T19:13:47.336Z,80.76
2023-02-21T19:16:15.293Z,80.90
2023-02-21T19:18:42.353Z,80.89
2023-02-21T19:21:12.782Z,80.91
2023-02-21T19:23:41.038Z,80.81
2023-02-21T19:26:08.571Z,80.77
2023-02-21T19:28:35.520Z,80.47
2023-02-21T19:31:04.501Z,80.67
2023-02-21T19:33:31.772Z,80.68
2023-02-21T19:35:58.626Z,80.53
2023-02-21T19:38:25.462Z,80.67
2023-02-21T19:40:52.358Z,80.76
2023-02-21T19:43:19.490Z,80.75
2023-02-21T19:45:46.473Z,80.52
2023-02-21T19:48:13.783Z,80.68
2023-02-21T19:50:41.360Z,80.90
2023-02-21T19:53:08.449Z,81.08
2023-02-21T19:55:35.380Z,81.20
2023-02-21T19:58:06.980Z,81.02
2023-02-21T20:00:34.823Z,80.83
2023-02-21T20:03:02.461Z,81.00
2023-02-21T20:05:29.399Z,81.12
2023-02-21T20:07:56.182Z,81.23
2023-02-21T20:10:25.521Z,81.13
2023-02-21T20:12:53.760Z,81.11
2023-02-21T20:15:20.643Z,81.02
2023-02-21T20:17:48.225Z,81.03
2023-02-21T20:20:16.073Z,81.27
2023-02-21T20:22:43.081Z,81.47
2023-02-21T20:25:10.181Z,81.50
2023-02-21T20:27:37.309Z,81.47
2023-02-21T20:30:05.863Z,81.07
2023-02-21T20:32:32.802Z,81.16
2023-02-21T20:34:59.822Z,81.46
2023-02-21T20:37:31.212Z,81.64
2023-02-21T20:39:59.021Z,81.53
2023-02-21T20:42:25.984Z,81.43
2023-02-21T20:44:52.919Z,81.77
2023-02-21T20:47:20.214Z,81.57
2023-02-21T20:49:47.834Z,81.51
2023-02-21T20:52:16.445Z,81.40
2023-02-21T20:54:43.822Z,81.29
2023-02-21T20:57:10.667Z,81.36
2023-02-21T20:59:39.678Z,81.13
2023-02-21T21:02:08.301Z,81.19
2023-02-21T21:04:43.064Z,81.01
2023-02-21T21:07:13.525Z,80.91
2023-02-21T21:09:41.481Z,81.21
2023-02-21T21:12:14.825Z,80.69
2023-02-21T21:14:44.593Z,81.10
2023-02-21T21:17:15.239Z,81.46
2023-02-21T21:19:44.400Z,81.53
2023-02-21T21:22:18.556Z,81.75
2023-02-21T21:24:46.143Z,81.68
2023-02-21T21:27:15.547Z,81.88
2023-02-21T21:29:45.102Z,81.86
2023-02-21T21:32:21.281Z,82.00
2023-02-21T21:34:54.995Z,82.01
2023-02-21T21:37:28.110Z,82.43
2023-02-21T21:39:56.379Z,82.48
2023-02-21T21:42:25.533Z,82.17
2023-02-21T21:44:54.184Z,82.13
2023-02-21T21:47:32.218Z,82.37
2023-02-21T21:50:02.522Z,82.52
2023-02-21T21:52:30.027Z,82.60
2023-02-21T21:54:58.448Z,82.73
2023-02-21T21:57:28.304Z,82.88
2023-02-21T21:59:55.587Z,82.67
2023-02-21T22:02:22.634Z,82.83
2023-02-21T22:04:52.624Z,82.68
2023-02-21T22:07:19.837Z,82.54
2023-02-21T22:09:47.443Z,82.62
2023-02-21T22:12:18.613Z,82.48
2023-02-21T22:14:45.468Z,82.45
2023-02-21T22:17:12.487Z,82.40
2023-02-21T22:19:39.307Z,82.26
2023-02-21T22:22:08.346Z,82.35
2023-02-21T22:24:35.688Z,82.18
2023-02-21T22:27:03.092Z,82.17
2023-02-21T22:29:30.001Z,81.78
2023-02-21T22:31:57.040Z,82.29
2023-02-21T22:34:24.035Z,82.17
2023-02-21T22:36:55.985Z,82.25
2023-02-21T22:39:24.136Z,82.29
2023-02-21T22:41:51.378Z,81.97
2023-02-21T22:44:18.914Z,82.44
2023-02-21T22:46:48.280Z,82.38
2023-02-21T22:49:16.856Z,82.71
2023-02-21T22:51:44.093Z,82.72
2023-02-21T22:54:14.634Z,82.22
2023-02-21T22:56:51.017Z,82.28
2023-02-21T22:59:20.420Z,82.39
2023-02-21T23:01:47.339Z,82.45
2023-02-21T23:04:25.771Z,82.09
2023-02-21T23:06:58.545Z,82.17
2023-02-21T23:09:27.321Z,82.49
2023-02-21T23:11:58.488Z,82.37
2023-02-21T23:14:27.084Z,82.55
2023-02-21T23:16:58.485Z,83.02
2023-02-21T23:19:27.861Z,82.79
2023-02-21T23:21:55.227Z,82.94
2023-02-21T23:24:22.549Z,82.73
2023-02-21T23:26:50.682Z,82.74
2023-02-21T23:29:20.759Z,82.73
2023-02-21T23:31:48.760Z,82.93
2023-02-21T23:34:16.176Z,83.39
2023-02-21T23:36:44.594Z,82.90
2023-02-21T23:39:15.176Z,82.85
2023-02-21T23:41:48.768Z,82.69
2023-02-21T23:44:16.742Z,82.87
2023-02-21T23:46:45.092Z,82.54
2023-02-21T23:49:16.021Z,82.77
2023-02-21T23:51:44.063Z,82.90
2023-02-21T23:54:11.876Z,82.97
2023-02-21T23:56:40.291Z,82.97
2023-02-21T23:59:07.764Z,82.90
